createdAt,value
2022-12-13T00:01:52.399Z,6.00
2022-12-13T00:04:21.848Z,8.50
2022-12-13T00:06:50.239Z,6.75
2022-12-13T00:09:19.392Z,4.00
2022-12-13T00:11:48.219Z,8.75
2022-12-13T00:14:16.263Z,4.50
2022-12-13T00:16:48.752Z,6.75
2022-12-13T00:19:17.493Z,9.75
2022-12-13T00:21:45.187Z,6.00
2022-12-13T00:24:12.921Z,6.50
2022-12-13T00:26:40.593Z,7.25
2022-12-13T00:29:09.183Z,6.75
2022-12-13T00:31:59.341Z,6.50
2022-12-13T00:34:25.830Z,5.25
2022-12-13T00:36:59.420Z,5.75
2022-12-13T00:39:28.118Z,6.75
2022-12-13T00:41:55.660Z,6.00
2022-12-13T00:44:23.480Z,8.00
2022-12-13T00:46:54.140Z,8.50
2022-12-13T00:49:21.780Z,9.00
2022-12-13T00:51:49.970Z,4.00
2022-12-13T00:54:17.510Z,2.50
2022-12-13T00:56:45.141Z,5.50
2022-12-13T00:59:16.089Z,8.00
2022-12-13T01:01:43.901Z,10.50
2022-12-13T01:04:12.322Z,6.00
2022-12-13T01:06:43.504Z,4.75
2022-12-13T01:09:23.463Z,7.00
2022-12-13T01:11:51.263Z,7.50
2022-12-13T01:14:20.497Z,7.00
2022-12-13T01:16:48.395Z,7.00
2022-12-13T01:19:16.584Z,8.50
2022-12-13T01:21:44.169Z,6.00
2022-12-13T01:24:11.863Z,6.50
2022-12-13T01:26:39.293Z,0.00
2022-12-13T01:29:06.993Z,10.50
2022-12-13T01:31:35.692Z,6.50
2022-12-13T01:34:10.670Z,5.00
2022-12-13T01:36:39.984Z,5.00
2022-12-13T01:39:15.236Z,8.00
2022-12-13T01:41:44.998Z,3.50
2022-12-13T01:44:49.570Z,5.00
2022-12-13T01:47:23.730Z,3.50
2022-12-13T01:49:54.371Z,8.50
2022-12-13T01:52:22.351Z,6.25
2022-12-13T01:54:55.336Z,3.50
2022-12-13T01:57:33.375Z,5.50
2022-12-13T02:00:01.971Z,9.00
2022-12-13T02:02:35.090Z,5.00
2022-12-13T02:05:34.858Z,6.00
2022-12-13T02:08:03.613Z,7.50
2022-12-13T02:10:32.616Z,8.00
2022-12-13T02:13:00.153Z,3.75
2022-12-13T02:15:43.797Z,4.00
2022-12-13T02:18:43.994Z,4.00
2022-12-13T02:21:23.812Z,3.75
2022-12-13T02:24:36.488Z,4.00
2022-12-13T02:27:30.576Z,6.75
2022-12-13T02:30:15.385Z,6.00
2022-12-13T02:32:57.767Z,6.00
2022-12-13T02:35:47.594Z,9.00
2022-12-13T02:38:34.061Z,6.00
2022-12-13T02:41:16.190Z,10.00
2022-12-13T02:43:53.452Z,10.25
2022-12-13T02:46:33.698Z,6.00
2022-12-13T02:49:02.058Z,6.50
2022-12-13T02:51:30.701Z,7.00
2022-12-13T02:53:57.990Z,3.67
2022-12-13T02:56:25.279Z,6.33
2022-12-13T02:58:56.255Z,6.75
2022-12-13T03:01:27.747Z,4.67
2022-12-13T03:03:58.575Z,5.33
2022-12-13T03:06:53.395Z,3.00
2022-12-13T03:09:45.352Z,7.00
2022-12-13T03:12:53.999Z,6.00
2022-12-13T03:15:49.564Z,3.00
2022-12-13T03:18:22.452Z,7.00
2022-12-13T03:20:58.222Z,7.00
2022-12-13T03:23:25.982Z,3.67
2022-12-13T03:25:56.649Z,0.00
2022-12-13T03:28:24.191Z,6.67
2022-12-13T03:30:51.471Z,6.33
2022-12-13T03:33:19.136Z,6.67
2022-12-13T03:35:47.179Z,5.67
2022-12-13T03:38:22.040Z,3.33
2022-12-13T03:41:03.901Z,4.00
2022-12-13T03:43:31.563Z,9.00
2022-12-13T03:45:58.843Z,4.00
2022-12-13T03:48:26.112Z,3.33
2022-12-13T03:50:54.314Z,6.00
2022-12-13T03:53:33.213Z,4.00
2022-12-13T03:56:05.958Z,4.00
2022-12-13T03:58:37.344Z,4.67
2022-12-13T04:01:16.875Z,6.00
2022-12-13T04:03:47.054Z,2.00
2022-12-13T04:06:21.786Z,3.75
2022-12-13T04:08:51.937Z,3.00
2022-12-13T04:11:42.373Z,6.33
2022-12-13T04:14:12.184Z,3.25
2022-12-13T04:16:49.091Z,2.75
2022-12-13T04:19:16.645Z,3.75
2022-12-13T04:21:54.588Z,1.50
2022-12-13T04:24:31.328Z,3.00
2022-12-13T04:27:01.506Z,1.00
2022-12-13T04:29:34.327Z,2.00
2022-12-13T04:32:27.243Z,2.50
2022-12-13T04:35:01.540Z,1.00
2022-12-13T04:37:29.927Z,3.75
2022-12-13T04:40:01.014Z,3.25
2022-12-13T04:42:28.872Z,1.00
2022-12-13T04:44:56.341Z,0.25
2022-12-13T04:47:23.763Z,3.00
2022-12-13T04:49:51.214Z,1.00
2022-12-13T04:52:22.448Z,4.00
2022-12-13T04:54:55.559Z,2.25
2022-12-13T04:57:24.321Z,3.75
2022-12-13T04:59:52.308Z,1.00
2022-12-13T05:02:23.826Z,1.50
2022-12-13T05:04:53.362Z,2.50
2022-12-13T05:07:23.666Z,0.75
2022-12-13T05:09:51.106Z,0.00
2022-12-13T05:12:22.364Z,1.50
2022-12-13T05:14:53.956Z,2.00
2022-12-13T05:17:22.227Z,0.00
2022-12-13T05:19:49.670Z,3.00
2022-12-13T05:22:20.701Z,2.50
2022-12-13T05:24:49.173Z,1.00
2022-12-13T05:27:25.552Z,0.00
2022-12-13T05:30:04.433Z,0.75
2022-12-13T05:32:43.776Z,1.00
2022-12-13T05:35:23.068Z,0.00
2022-12-13T05:37:55.318Z,1.00
2022-12-13T05:40:24.743Z,1.00
2022-12-13T05:42:52.264Z,0.25
2022-12-13T05:45:30.974Z,0.00
2022-12-13T05:47:58.420Z,0.25
2022-12-13T05:50:26.357Z,2.00
2022-12-13T05:52:53.830Z,1.00
2022-12-13T05:55:21.317Z,3.75
2022-12-13T05:57:50.315Z,1.00
2022-12-13T06:00:29.749Z,1.00
2022-12-13T06:03:00.518Z,0.00
2022-12-13T06:05:30.284Z,1.00
2022-12-13T06:07:59.164Z,1.00
2022-12-13T06:10:34.785Z,0.75
2022-12-13T06:13:21.606Z,0.00
2022-12-13T06:16:01.502Z,1.00
2022-12-13T06:18:32.352Z,1.50
2022-12-13T06:21:02.059Z,1.00
2022-12-13T06:23:31.266Z,0.50
2022-12-13T06:25:58.861Z,2.00
2022-12-13T06:28:26.261Z,0.00
2022-12-13T06:30:53.783Z,0.00
2022-12-13T06:33:23.549Z,0.00
2022-12-13T06:35:52.900Z,1.00
2022-12-13T06:38:21.967Z,0.00
2022-12-13T06:41:17.118Z,0.50
2022-12-13T06:43:45.948Z,1.00
2022-12-13T06:46:14.030Z,0.00
2022-12-13T06:48:42.400Z,1.00
2022-12-13T06:51:10.917Z,1.00
2022-12-13T06:53:40.550Z,0.75
2022-12-13T06:56:11.338Z,0.00
2022-12-13T06:58:39.427Z,0.25
2022-12-13T07:01:14.884Z,1.00
2022-12-13T07:03:58.742Z,0.00
2022-12-13T07:06:26.872Z,0.00
2022-12-13T07:08:58.513Z,2.00
2022-12-13T07:11:28.822Z,1.50
2022-12-13T07:13:57.029Z,1.50
2022-12-13T07:16:25.463Z,2.00
2022-12-13T07:19:01.115Z,1.00
2022-12-13T07:21:30.708Z,1.00
2022-12-13T07:23:58.239Z,1.00
2022-12-13T07:26:26.325Z,0.00
2022-12-13T07:28:55.548Z,1.00
2022-12-13T07:31:24.648Z,0.00
2022-12-13T07:33:52.668Z,0.25
2022-12-13T07:36:23.083Z,1.00
2022-12-13T07:38:57.759Z,0.00
2022-12-13T07:41:26.607Z,1.00
2022-12-13T07:43:56.235Z,0.00
2022-12-13T07:46:32.997Z,1.00
2022-12-13T07:49:05.359Z,1.00
2022-12-13T07:51:35.053Z,1.00
2022-12-13T07:54:06.407Z,1.00
2022-12-13T07:56:35.234Z,1.00
2022-12-13T07:59:02.992Z,0.00
2022-12-13T08:01:36.828Z,1.00
2022-12-13T08:04:05.194Z,1.00
2022-12-13T08:06:37.435Z,0.50
2022-12-13T08:09:06.193Z,1.50
2022-12-13T08:11:33.911Z,2.00
2022-12-13T08:14:01.624Z,1.00
2022-12-13T08:16:30.591Z,2.50
2022-12-13T08:19:02.527Z,3.00
2022-12-13T08:21:53.991Z,3.00
2022-12-13T08:24:22.562Z,0.00
2022-12-13T08:26:50.281Z,3.00
2022-12-13T08:29:23.128Z,0.25
2022-12-13T08:32:02.211Z,3.75
2022-12-13T08:34:30.547Z,1.50
2022-12-13T08:37:02.168Z,1.00
2022-12-13T08:39:35.732Z,1.00
2022-12-13T08:42:15.753Z,0.00
2022-12-13T08:44:53.783Z,0.25
2022-12-13T08:47:25.970Z,0.00
2022-12-13T08:50:03.079Z,1.00
2022-12-13T08:52:39.155Z,2.50
2022-12-13T08:55:13.148Z,3.00
2022-12-13T08:57:42.502Z,3.25
2022-12-13T09:00:15.687Z,1.50
2022-12-13T09:02:43.968Z,1.00
2022-12-13T09:05:33.517Z,1.00
2022-12-13T09:08:04.592Z,2.00
2022-12-13T09:11:10.674Z,1.00
2022-12-13T09:13:48.833Z,3.00
2022-12-13T09:16:24.377Z,4.00
2022-12-13T09:18:55.272Z,3.50
2022-12-13T09:21:31.655Z,3.00
2022-12-13T09:24:02.024Z,1.00
2022-12-13T09:26:37.633Z,1.00
2022-12-13T09:29:10.908Z,3.25
2022-12-13T09:31:41.075Z,1.00
2022-12-13T09:34:10.385Z,1.00
2022-12-13T09:36:38.401Z,0.25
2022-12-13T09:39:06.258Z,1.00
2022-12-13T09:41:40.975Z,0.00
2022-12-13T09:44:32.759Z,2.50
2022-12-13T09:47:13.190Z,2.00
2022-12-13T09:49:52.333Z,1.25
2022-12-13T09:52:25.086Z,2.00
2022-12-13T09:54:57.900Z,1.75
2022-12-13T09:57:33.944Z,2.00
2022-12-13T10:00:12.827Z,0.25
2022-12-13T10:02:45.864Z,0.25
2022-12-13T10:05:34.251Z,0.25
2022-12-13T10:08:33.465Z,1.50
2022-12-13T10:11:01.303Z,0.25
2022-12-13T10:13:49.839Z,2.50
2022-12-13T10:16:37.578Z,1.00
2022-12-13T10:19:29.333Z,1.00
2022-12-13T10:22:01.051Z,1.00
2022-12-13T10:25:04.018Z,1.00
2022-12-13T10:27:38.036Z,1.00
2022-12-13T10:30:08.741Z,2.25
2022-12-13T10:32:55.360Z,3.50
2022-12-13T10:35:30.641Z,1.00
2022-12-13T10:38:01.979Z,3.00
2022-12-13T10:40:41.148Z,2.00
2022-12-13T10:43:18.978Z,1.00
2022-12-13T10:46:01.694Z,1.50
2022-12-13T10:48:51.954Z,0.50
2022-12-13T10:51:21.191Z,0.00
2022-12-13T10:53:59.193Z,0.00
2022-12-13T10:56:50.423Z,1.50
2022-12-13T10:59:36.757Z,2.50
2022-12-13T11:02:36.868Z,1.00
2022-12-13T11:05:38.461Z,2.00
2022-12-13T11:08:23.090Z,3.00
2022-12-13T11:11:06.265Z,3.00
2022-12-13T11:13:42.987Z,2.50
2022-12-13T11:16:34.883Z,1.00
2022-12-13T11:19:11.820Z,1.00
2022-12-13T11:21:48.794Z,3.00
2022-12-13T11:24:26.222Z,0.75
2022-12-13T11:27:00.313Z,0.25
2022-12-13T11:29:59.870Z,1.00
2022-12-13T11:33:12.042Z,3.25
2022-12-13T11:36:01.226Z,1.50
2022-12-13T11:38:40.429Z,1.00
2022-12-13T11:41:32.198Z,0.50
2022-12-13T11:44:13.758Z,1.00
2022-12-13T11:46:48.530Z,1.00
2022-12-13T11:49:19.504Z,1.00
2022-12-13T11:51:58.542Z,1.00
2022-12-13T11:54:38.119Z,1.00
2022-12-13T11:57:33.506Z,1.00
2022-12-13T12:00:35.783Z,0.50
2022-12-13T12:03:22.259Z,0.00
2022-12-13T12:06:09.700Z,0.00
2022-12-13T12:08:48.694Z,1.00
2022-12-13T12:11:46.588Z,1.00
2022-12-13T12:14:41.523Z,0.00
2022-12-13T12:17:13.880Z,0.00
2022-12-13T12:19:47.104Z,0.00
2022-12-13T12:22:35.859Z,1.00
2022-12-13T12:25:51.186Z,0.50
2022-12-13T12:28:51.161Z,0.00
2022-12-13T12:31:36.216Z,2.00
2022-12-13T12:34:27.928Z,0.75
2022-12-13T12:37:13.745Z,1.00
2022-12-13T12:40:22.723Z,0.00
2022-12-13T12:43:15.867Z,1.00
2022-12-13T12:45:56.713Z,1.00
2022-12-13T12:49:01.672Z,1.00
2022-12-13T12:52:01.062Z,0.25
2022-12-13T12:54:40.395Z,0.00
2022-12-13T12:57:22.960Z,1.00
2022-12-13T13:00:28.247Z,0.00
2022-12-13T13:03:22.668Z,1.00
2022-12-13T13:06:14.309Z,1.00
2022-12-13T13:09:05.310Z,0.75
2022-12-13T13:11:43.323Z,0.00
2022-12-13T13:14:31.149Z,0.25
2022-12-13T13:17:24.066Z,1.00
2022-12-13T13:20:06.641Z,0.75
2022-12-13T13:22:43.434Z,0.75
2022-12-13T13:25:40.100Z,0.00
2022-12-13T13:28:23.017Z,0.75
2022-12-13T13:31:09.335Z,0.00
2022-12-13T13:33:47.362Z,0.00
2022-12-13T13:36:52.947Z,0.00
2022-12-13T13:39:39.471Z,0.00
2022-12-13T13:42:17.471Z,0.00
2022-12-13T13:44:52.216Z,0.00
2022-12-13T13:47:24.557Z,1.00
2022-12-13T13:50:13.538Z,0.00
2022-12-13T13:53:06.056Z,1.00
2022-12-13T13:56:01.855Z,0.25
2022-12-13T13:58:32.698Z,1.00
2022-12-13T14:01:15.268Z,0.00
2022-12-13T14:04:04.344Z,0.00
2022-12-13T14:06:50.828Z,0.75
2022-12-13T14:10:03.712Z,0.25
2022-12-13T14:12:49.953Z,0.00
2022-12-13T14:15:49.590Z,0.00
2022-12-13T14:18:48.302Z,0.00
2022-12-13T14:21:37.769Z,0.00
2022-12-13T14:24:39.836Z,0.00
2022-12-13T14:27:21.147Z,0.00
2022-12-13T14:29:58.305Z,0.00
2022-12-13T14:32:33.001Z,0.00
2022-12-13T14:35:24.830Z,0.00
2022-12-13T14:38:06.054Z,0.00
2022-12-13T14:40:36.709Z,0.00
2022-12-13T14:43:04.864Z,1.00
2022-12-13T14:45:37.041Z,0.00
2022-12-13T14:48:12.024Z,0.00
2022-12-13T14:50:43.978Z,0.00
2022-12-13T14:53:28.907Z,0.00
2022-12-13T14:56:28.425Z,0.00
2022-12-13T14:59:00.026Z,0.00
2022-12-13T15:01:30.544Z,1.00
2022-12-13T15:04:31.268Z,0.00
2022-12-13T15:07:09.384Z,0.00
2022-12-13T15:09:40.276Z,0.25
2022-12-13T15:12:25.197Z,0.50
2022-12-13T15:15:03.310Z,0.25
2022-12-13T15:17:35.147Z,0.25
2022-12-13T15:20:30.436Z,0.00
2022-12-13T15:23:12.339Z,2.50
2022-12-13T15:25:43.741Z,0.00
2022-12-13T15:28:18.184Z,0.00
2022-12-13T15:30:49.708Z,0.00
2022-12-13T15:33:19.104Z,0.00
2022-12-13T15:35:50.517Z,0.00
2022-12-13T15:38:28.539Z,0.50
2022-12-13T15:40:57.459Z,0.00
2022-12-13T15:43:33.446Z,0.00
2022-12-13T15:46:01.788Z,0.50
2022-12-13T15:48:39.528Z,0.00
2022-12-13T15:51:28.946Z,0.00
2022-12-13T15:54:23.573Z,0.00
2022-12-13T15:57:14.737Z,0.00
2022-12-13T15:59:43.583Z,0.00
2022-12-13T16:02:25.022Z,0.00
2022-12-13T16:04:52.935Z,0.00
2022-12-13T16:07:33.183Z,0.00
2022-12-13T16:10:00.671Z,0.25
2022-12-13T16:12:59.050Z,0.00
2022-12-13T16:15:48.997Z,0.25
2022-12-13T16:18:27.555Z,0.00
2022-12-13T16:20:55.400Z,0.00
2022-12-13T16:23:27.491Z,0.25
2022-12-13T16:25:55.755Z,0.75
2022-12-13T16:28:26.017Z,1.00
2022-12-13T16:30:54.064Z,0.00
2022-12-13T16:33:27.470Z,0.25
2022-12-13T16:35:56.522Z,0.25
2022-12-13T16:38:26.897Z,0.00
2022-12-13T16:40:56.923Z,0.00
2022-12-13T16:43:33.390Z,0.00
2022-12-13T16:47:10.324Z,1.00
2022-12-13T16:48:52.786Z,0.00
2022-12-13T16:51:20.665Z,0.00
2022-12-13T16:53:48.828Z,1.50
2022-12-13T16:56:21.944Z,0.00
2022-12-13T16:58:50.855Z,0.75
2022-12-13T17:01:20.842Z,0.00
2022-12-13T17:03:48.610Z,0.00
2022-12-13T17:06:23.311Z,0.00
2022-12-13T17:08:51.116Z,0.00
2022-12-13T17:11:18.754Z,0.25
2022-12-13T17:13:48.472Z,4.00
2022-12-13T17:16:16.299Z,1.50
2022-12-13T17:18:43.711Z,0.25
2022-12-13T17:21:11.231Z,1.00
2022-12-13T17:23:38.511Z,0.00
2022-12-13T17:26:07.196Z,0.00
2022-12-13T17:28:34.763Z,1.00
2022-12-13T17:31:10.272Z,2.00
2022-12-13T17:33:38.074Z,0.00
2022-12-13T17:36:07.311Z,0.00
2022-12-13T17:38:35.593Z,0.00
2022-12-13T17:41:03.712Z,0.00
2022-12-13T17:43:34.741Z,0.00
2022-12-13T17:46:04.708Z,0.00
2022-12-13T17:48:39.519Z,3.00
2022-12-13T17:51:10.190Z,0.75
2022-12-13T17:53:39.916Z,0.25
2022-12-13T17:56:09.065Z,0.00
2022-12-13T17:58:37.723Z,0.00
2022-12-13T18:01:12.428Z,0.00
2022-12-13T18:03:39.819Z,0.25
2022-12-13T18:06:07.419Z,1.00
2022-12-13T18:08:37.228Z,1.00
2022-12-13T18:13:55.265Z,0.25
2022-12-13T18:16:28.881Z,1.00
2022-12-13T18:19:01.144Z,1.50
2022-12-13T18:21:28.557Z,0.50
2022-12-13T18:23:56.300Z,0.75
2022-12-13T18:26:24.708Z,0.50
2022-12-13T18:28:52.349Z,1.00
2022-12-13T18:31:23.256Z,0.00
2022-12-13T18:33:52.685Z,1.00
2022-12-13T18:36:21.703Z,0.00
2022-12-13T18:38:49.091Z,0.25
2022-12-13T18:41:22.131Z,0.00
2022-12-13T18:43:59.731Z,0.00
2022-12-13T18:46:29.162Z,0.00
2022-12-13T18:48:57.363Z,0.00
2022-12-13T18:51:25.843Z,0.75
2022-12-13T18:53:54.842Z,0.50
2022-12-13T18:56:22.788Z,1.00
2022-12-13T18:58:51.666Z,0.00
2022-12-13T19:01:20.585Z,3.00
2022-12-13T19:03:49.933Z,1.00
2022-12-13T19:06:24.895Z,1.50
2022-12-13T19:08:57.080Z,3.00
2022-12-13T19:11:27.661Z,0.25
2022-12-13T19:13:56.665Z,0.00
2022-12-13T19:16:26.838Z,0.00
2022-12-13T19:18:55.861Z,0.00
2022-12-13T19:21:24.743Z,1.00
2022-12-13T19:23:57.684Z,1.50
2022-12-13T19:26:29.438Z,0.00
2022-12-13T19:28:59.929Z,0.75
2022-12-13T19:31:32.236Z,0.50
2022-12-13T19:34:03.245Z,0.00
2022-12-13T19:36:35.044Z,0.00
2022-12-13T19:39:04.355Z,1.50
2022-12-13T19:41:34.238Z,0.00
2022-12-13T19:44:06.427Z,0.00
2022-12-13T19:46:35.610Z,0.00
2022-12-13T19:49:04.439Z,0.00
2022-12-13T19:51:39.064Z,0.00
2022-12-13T19:54:08.444Z,1.00
2022-12-13T19:56:36.643Z,0.25
2022-12-13T19:59:04.506Z,1.00
2022-12-13T20:01:32.609Z,0.00
2022-12-13T20:04:00.925Z,0.75
2022-12-13T20:06:29.433Z,0.00
2022-12-13T20:08:57.801Z,0.00
2022-12-13T20:11:28.558Z,0.75
2022-12-13T20:13:57.324Z,0.00
2022-12-13T20:16:28.893Z,0.00
2022-12-13T20:19:00.275Z,2.50
2022-12-13T20:21:29.750Z,0.00
2022-12-13T20:23:58.943Z,0.00
2022-12-13T20:26:30.360Z,0.75
2022-12-13T20:28:58.782Z,0.00
2022-12-13T20:31:32.910Z,0.50
2022-12-13T20:34:09.731Z,1.00
2022-12-13T20:36:37.680Z,0.00
2022-12-13T20:39:06.943Z,0.00
2022-12-13T20:41:36.429Z,0.00
2022-12-13T20:44:06.357Z,1.00
2022-12-13T20:46:34.263Z,0.00
2022-12-13T20:49:03.523Z,0.50
2022-12-13T20:51:32.231Z,1.00
2022-12-13T20:53:59.667Z,1.00
2022-12-13T20:56:29.662Z,0.50
2022-12-13T20:58:57.085Z,0.00
2022-12-13T21:01:30.741Z,0.00
2022-12-13T21:04:00.614Z,0.50
2022-12-13T21:06:29.791Z,0.00
2022-12-13T21:09:02.845Z,0.00
2022-12-13T21:11:36.619Z,1.00
2022-12-13T21:14:20.493Z,1.00
2022-12-13T21:16:54.582Z,0.75
2022-12-13T21:19:27.444Z,0.00
2022-12-13T21:21:56.349Z,0.25
2022-12-13T21:24:25.561Z,0.00
2022-12-13T21:26:53.687Z,0.25
2022-12-13T21:29:21.111Z,0.00
2022-12-13T21:31:53.513Z,0.00
2022-12-13T21:34:22.453Z,1.00
2022-12-13T21:36:52.557Z,1.00
2022-12-13T21:39:24.921Z,0.25
2022-12-13T21:41:52.684Z,0.25
2022-12-13T21:44:20.742Z,0.00
2022-12-13T21:49:36.046Z,0.25
2022-12-13T21:52:03.315Z,0.50
2022-12-13T21:54:30.632Z,0.50
2022-12-13T21:57:16.375Z,0.00
2022-12-13T21:59:43.622Z,0.00
2022-12-13T22:02:19.534Z,0.00
2022-12-13T22:04:58.670Z,0.00
2022-12-13T22:07:31.800Z,0.00
2022-12-13T22:10:02.623Z,0.00
2022-12-13T22:12:36.911Z,3.00
2022-12-13T22:15:06.585Z,1.00
2022-12-13T22:17:36.072Z,0.00
2022-12-13T22:20:13.088Z,1.00
2022-12-13T22:22:42.103Z,0.75
2022-12-13T22:25:10.106Z,0.00
2022-12-13T22:27:37.741Z,0.00
2022-12-13T22:30:05.670Z,1.00
2022-12-13T22:32:34.206Z,0.50
2022-12-13T22:35:01.579Z,0.50
2022-12-13T22:37:29.096Z,0.00
2022-12-13T22:39:56.794Z,0.00
2022-12-13T22:42:24.386Z,0.75
2022-12-13T22:44:51.944Z,2.50
2022-12-13T22:47:19.905Z,1.00
2022-12-13T22:49:48.915Z,1.00
2022-12-13T22:52:17.149Z,1.00
2022-12-13T22:54:44.641Z,0.25
2022-12-13T22:57:12.266Z,0.00
2022-12-13T22:59:39.985Z,0.00
2022-12-13T23:02:08.107Z,1.00
2022-12-13T23:04:35.805Z,0.00
2022-12-13T23:07:03.421Z,0.00
2022-12-13T23:09:31.059Z,0.00
2022-12-13T23:12:16.871Z,0.00
2022-12-13T23:14:44.272Z,0.00
2022-12-13T23:17:11.548Z,1.00
2022-12-13T23:19:52.864Z,1.00
2022-12-13T23:22:25.224Z,0.00
2022-12-13T23:24:53.331Z,0.75
2022-12-13T23:27:22.457Z,0.00
2022-12-13T23:29:50.429Z,0.00
2022-12-13T23:32:18.157Z,0.00
2022-12-13T23:34:45.631Z,0.50
2022-12-13T23:37:13.005Z,1.00
2022-12-13T23:39:40.358Z,0.00
2022-12-13T23:42:08.065Z,0.00
2022-12-13T23:44:35.569Z,0.00
2022-12-13T23:47:02.919Z,0.00
2022-12-13T23:49:30.338Z,0.50
2022-12-13T23:51:57.655Z,0.75
2022-12-13T23:54:25.063Z,0.25
2022-12-13T23:56:52.460Z,1.50
2022-12-13T23:59:19.777Z,0.00
